Time;durP1;ratioP1;P1;durP2;ratioP2;P2;SDS_P1;SDS_P2;PMS_P1;PMS_P2;Temp;Humidity;BMP_temperature;BMP_pressure;BME280_temperature;BME280_humidity;BME280_pressure;Samples;Min_cycle;Max_cycle;Signal;HPM_P1;HPM_P2
2023/04/22 00:01:25;;;;;;;15.07;9.10;;;;;;;8.64;60.15;101200.88;4976491;28;20120;-51
2023/04/22 00:03:51;;;;;;;15.52;9.13;;;;;;;8.63;60.12;101193.91;4978934;28;20121;-51
2023/04/22 00:06:17;;;;;;;13.02;8.32;;;;;;;8.62;60.44;101191.31;4967854;28;20181;-51
2023/04/22 00:08:43;;;;;;;18.67;8.80;;;;;;;8.61;60.15;101194.84;4967424;28;20047;-51
2023/04/22 00:11:09;;;;;;;14.63;9.40;;;;;;;8.54;60.04;101188.91;4980662;28;20037;-51
2023/04/22 00:13:35;;;;;;;11.43;7.88;;;;;;;8.47;60.22;101179.47;4977045;28;20456;-51
2023/04/22 00:16:02;;;;;;;13.35;8.82;;;;;;;8.39;60.48;101176.16;4976058;28;20058;-51
2023/04/22 00:18:28;;;;;;;19.80;8.65;;;;;;;8.38;60.53;101171.78;4966086;28;20027;-52
2023/04/22 00:20:53;;;;;;;15.10;8.60;;;;;;;8.40;60.27;101177.88;4977064;28;20114;-52
2023/04/22 00:23:19;;;;;;;14.55;8.90;;;;;;;8.28;60.51;101165.94;4977690;28;20517;-52
2023/04/22 00:25:45;;;;;;;20.33;9.18;;;;;;;8.25;60.93;101166.03;4978792;28;20034;-51
2023/04/22 00:28:10;;;;;;;11.98;8.43;;;;;;;8.25;61.72;101161.63;4981777;28;20031;-52
2023/04/22 00:30:35;;;;;;;14.75;8.60;;;;;;;8.30;61.75;101158.84;4983324;28;20045;-51
2023/04/22 00:33:01;;;;;;;21.75;9.68;;;;;;;8.26;61.91;101158.06;4977381;28;20415;-52
2023/04/22 00:35:26;;;;;;;12.73;8.75;;;;;;;8.22;62.39;101156.47;4984413;28;20030;-52
2023/04/22 00:37:52;;;;;;;17.20;8.95;;;;;;;8.20;61.78;101158.25;4985657;28;20026;-52
2023/04/22 00:40:17;;;;;;;10.85;8.45;;;;;;;8.20;62.04;101152.97;4980461;28;20034;-51
2023/04/22 00:42:43;;;;;;;19.13;9.18;;;;;;;8.13;62.22;101156.72;4981642;28;20022;-52
2023/04/22 00:45:10;;;;;;;12.65;8.65;;;;;;;8.09;62.19;101149.78;4969551;28;20023;-51
2023/04/22 00:47:35;;;;;;;16.23;9.20;;;;;;;8.04;62.31;101160.50;4981335;28;20037;-52
2023/04/22 00:50:02;;;;;;;16.73;8.93;;;;;;;8.08;62.81;101148.09;4975093;28;20339;-52
2023/04/22 00:52:27;;;;;;;14.68;9.68;;;;;;;8.04;62.71;101147.31;4979894;28;20042;-51
2023/04/22 00:54:52;;;;;;;12.52;9.65;;;;;;;8.05;62.02;101142.91;4984116;28;20030;-53
2023/04/22 00:57:18;;;;;;;14.25;9.13;;;;;;;8.09;62.66;101149.78;4979228;28;20042;-51
2023/04/22 00:59:44;;;;;;;11.60;8.88;;;;;;;8.03;62.25;101142.09;4985246;28;20077;-51
2023/04/22 01:02:10;;;;;;;14.18;8.70;;;;;;;8.02;62.47;101149.13;4983166;28;20118;-52
2023/04/22 01:04:35;;;;;;;12.95;9.52;;;;;;;7.99;62.78;101143.09;4967770;28;20038;-51
2023/04/22 01:07:01;;;;;;;20.63;10.13;;;;;;;7.96;63.15;101135.28;4981703;28;20030;-51
2023/04/22 01:09:26;;;;;;;13.75;9.80;;;;;;;7.89;63.17;101127.56;4980534;28;20039;-51
2023/04/22 01:11:52;;;;;;;17.52;10.90;;;;;;;7.80;63.35;101134.84;4981949;28;20310;-52
2023/04/22 01:14:17;;;;;;;12.45;8.75;;;;;;;7.79;63.44;101136.59;4982476;28;20026;-51
2023/04/22 01:16:43;;;;;;;16.50;8.82;;;;;;;7.74;63.06;101130.63;4981083;28;20038;-51
2023/04/22 01:19:10;;;;;;;16.25;9.93;;;;;;;7.76;63.51;101131.44;4980585;28;20022;-51
2023/04/22 01:21:37;;;;;;;15.85;10.50;;;;;;;7.71;63.92;101133.31;4982519;28;20092;-52
2023/04/22 01:24:03;;;;;;;18.88;9.93;;;;;;;7.65;64.06;101125.59;4981221;28;20030;-52
2023/04/22 01:26:29;;;;;;;21.15;10.32;;;;;;;7.70;64.04;101121.94;4983576;28;20030;-52
2023/04/22 01:28:54;;;;;;;14.63;10.40;;;;;;;7.67;64.05;101121.19;4983162;28;20121;-52
2023/04/22 01:31:20;;;;;;;21.80;9.93;;;;;;;7.66;63.66;101116.81;4978123;28;20107;-52
2023/04/22 01:33:47;;;;;;;17.30;10.80;;;;;;;7.71;63.43;101118.38;4982807;28;20559;-50
2023/04/22 01:36:12;;;;;;;15.70;9.75;;;;;;;7.70;63.53;101116.69;4985516;28;20076;-50
2023/04/22 01:38:38;;;;;;;20.73;10.00;;;;;;;7.65;63.60;101118.59;4984829;28;20057;-52
2023/04/22 01:41:04;;;;;;;22.30;11.40;;;;;;;7.62;64.39;101117.81;4982629;28;20027;-50
2023/04/22 01:43:29;;;;;;;15.85;9.88;;;;;;;7.54;64.32;101116.25;4981954;28;20402;-52
2023/04/22 01:45:56;;;;;;;14.80;9.30;;;;;;;7.49;64.18;101123.41;4981519;28;20038;-50
2023/04/22 01:48:21;;;;;;;16.58;9.93;;;;;;;7.40;64.44;101112.25;4982088;28;20118;-52
2023/04/22 01:50:46;;;;;;;19.25;9.88;;;;;;;7.33;65.04;101106.31;4979564;28;20031;-51
2023/04/22 01:53:12;;;;;;;20.67;10.50;;;;;;;7.28;64.87;101108.19;4978290;28;20026;-51
2023/04/22 01:55:38;;;;;;;14.40;9.20;;;;;;;7.24;65.12;101104.78;4976787;28;20030;-51
2023/04/22 01:58:04;;;;;;;20.33;10.82;;;;;;;7.25;65.10;101105.63;4987859;28;20030;-52
2023/04/22 02:00:29;;;;;;;13.18;9.52;;;;;;;7.24;64.68;101110.03;4983093;28;20034;-52
2023/04/22 02:02:55;;;;;;;15.25;9.68;;;;;;;7.32;65.00;101100.19;4983720;28;20037;-53
2023/04/22 02:05:20;;;;;;;14.43;9.70;;;;;;;7.28;64.54;101103.78;4979821;28;20352;-51
2023/04/22 02:07:46;;;;;;;18.17;9.50;;;;;;;7.21;64.44;101101.34;4983597;28;20027;-51
2023/04/22 02:10:11;;;;;;;14.80;9.88;;;;;;;7.17;65.08;101101.41;4983306;28;20026;-51
2023/04/22 02:12:37;;;;;;;17.63;10.05;;;;;;;7.17;64.88;101103.19;4986201;28;20080;-51
2023/04/22 02:15:03;;;;;;;12.30;8.93;;;;;;;7.13;65.10;101099.78;4980015;28;20035;-52
2023/04/22 02:17:29;;;;;;;19.20;9.38;;;;;;;7.05;65.07;101096.50;4987196;28;20053;-51
2023/04/22 02:19:54;;;;;;;18.23;9.88;;;;;;;7.14;64.83;101091.03;4983526;28;20035;-51
2023/04/22 02:22:20;;;;;;;20.80;10.18;;;;;;;7.08;65.70;101092.94;4988727;28;20034;-51
2023/04/22 02:24:46;;;;;;;12.23;9.63;;;;;;;7.03;65.58;101092.16;4985070;28;20034;-51
2023/04/22 02:27:11;;;;;;;17.50;11.07;;;;;;;6.97;65.35;101087.94;4988484;28;20608;-52
2023/04/22 02:29:36;;;;;;;17.85;10.30;;;;;;;6.95;66.40;101092.38;4983174;28;20482;-51
2023/04/22 02:32:02;;;;;;;15.93;10.48;;;;;;;6.97;66.37;101088.81;4982166;28;20026;-51
2023/04/22 02:34:27;;;;;;;22.25;10.95;;;;;;;6.91;66.76;101088.09;4980589;28;20085;-51
2023/04/22 02:36:53;;;;;;;13.57;10.18;;;;;;;6.88;66.92;101089.06;4986494;28;20404;-51
2023/04/22 02:39:18;;;;;;;16.17;9.40;;;;;;;6.84;66.60;101083.91;4985826;28;20023;-51
2023/04/22 02:41:43;;;;;;;16.25;9.52;;;;;;;6.77;66.82;101081.41;4990278;28;20022;-52
2023/04/22 02:44:09;;;;;;;17.63;9.55;;;;;;;6.79;67.47;101084.00;4984937;28;20026;-51
2023/04/22 02:46:34;;;;;;;13.32;9.60;;;;;;;6.76;67.30;101077.06;4989889;28;20383;-51
2023/04/22 02:48:59;;;;;;;16.27;10.15;;;;;;;6.74;68.12;101076.25;4989045;28;20037;-51
2023/04/22 02:51:25;;;;;;;13.68;9.77;;;;;;;6.67;68.70;101074.69;4979218;28;20081;-51
2023/04/22 02:53:51;;;;;;;18.52;9.98;;;;;;;6.72;68.42;101064.91;4983100;28;20029;-51
2023/04/22 02:56:17;;;;;;;15.45;10.60;;;;;;;6.70;68.02;101065.84;4978665;28;20045;-52
2023/04/22 02:58:42;;;;;;;12.55;9.68;;;;;;;6.67;68.15;101066.78;4983182;28;20019;-51
2023/04/22 03:01:07;;;;;;;15.70;10.18;;;;;;;6.62;68.69;101066.03;4983102;28;20134;-51
2023/04/22 03:03:33;;;;;;;16.33;10.18;;;;;;;6.59;68.31;101066.13;4984225;28;20026;-51
2023/04/22 03:05:58;;;;;;;19.23;11.35;;;;;;;6.48;68.40;101073.38;4984717;28;20030;-51
2023/04/22 03:08:24;;;;;;;16.48;10.63;;;;;;;6.46;67.92;101070.78;4984327;28;20041;-51
2023/04/22 03:10:50;;;;;;;23.17;11.52;;;;;;;6.39;68.10;101075.31;4984461;28;20027;-51
2023/04/22 03:13:15;;;;;;;18.35;9.63;;;;;;;6.39;67.62;101075.31;4980783;28;20031;-51
2023/04/22 03:15:40;;;;;;;20.23;9.55;;;;;;;6.33;68.42;101067.59;4981775;28;20038;-52
2023/04/22 03:18:06;;;;;;;16.33;10.73;;;;;;;6.29;68.61;101068.53;4981907;28;20519;-52
2023/04/22 03:20:32;;;;;;;16.45;11.25;;;;;;;6.25;69.62;101070.38;4987583;28;20032;-51
2023/04/22 03:22:58;;;;;;;14.60;11.05;;;;;;;6.25;70.31;101066.91;4981469;28;20030;-52
2023/04/22 03:25:23;;;;;;;16.85;11.27;;;;;;;6.16;69.59;101072.34;4982791;28;20033;-51
2023/04/22 03:27:48;;;;;;;22.75;10.93;;;;;;;6.11;70.44;101067.19;4984970;28;20109;-51
2023/04/22 03:30:14;;;;;;;16.27;11.65;;;;;;;6.04;70.15;101063.84;4985950;28;20034;-51
2023/04/22 03:32:39;;;;;;;20.10;11.73;;;;;;;6.01;70.48;101071.78;4985778;28;20335;-51
2023/04/22 03:35:05;;;;;;;14.65;11.10;;;;;;;6.02;70.44;101065.63;4984779;28;20042;-51
2023/04/22 03:37:30;;;;;;;19.40;10.77;;;;;;;5.99;70.65;101065.69;4980508;28;20331;-51
2023/04/22 03:39:56;;;;;;;18.63;11.70;;;;;;;5.99;69.93;101073.56;4984824;28;20050;-51
2023/04/22 03:42:21;;;;;;;14.45;11.15;;;;;;;5.99;69.84;101070.94;4977984;28;20031;-51
2023/04/22 03:44:47;;;;;;;17.70;12.27;;;;;;;5.93;69.59;101065.78;4980725;28;20041;-51
2023/04/22 03:47:12;;;;;;;17.80;11.82;;;;;;;5.87;70.48;101065.94;4980052;28;20030;-51
2023/04/22 03:49:37;;;;;;;18.63;11.07;;;;;;;5.90;70.81;101065.84;4984151;28;20026;-51
2023/04/22 03:52:03;;;;;;;15.40;11.15;;;;;;;5.85;70.85;101067.72;4985988;28;20030;-52
2023/04/22 03:54:28;;;;;;;15.63;10.40;;;;;;;5.84;70.23;101071.25;4979018;28;20033;-51
2023/04/22 03:56:54;;;;;;;16.60;11.70;;;;;;;5.80;70.28;101062.59;4988401;28;20088;-51
2023/04/22 03:59:19;;;;;;;20.05;11.20;;;;;;;5.80;71.15;101065.22;4986865;28;20029;-51
2023/04/22 04:01:46;;;;;;;20.10;11.15;;;;;;;5.81;70.62;101066.94;4984196;28;20039;-51
2023/04/22 04:04:11;;;;;;;16.77;10.80;;;;;;;5.81;69.80;101066.06;4979818;28;20045;-51
2023/04/22 04:06:37;;;;;;;15.48;11.10;;;;;;;5.73;70.20;101062.75;4980546;28;20030;-51
2023/04/22 04:09:02;;;;;;;16.85;12.10;;;;;;;5.74;70.39;101064.44;4994828;28;20035;-51
2023/04/22 04:11:28;;;;;;;15.05;11.43;;;;;;;5.78;70.86;101066.13;4983991;28;20118;-51
2023/04/22 04:13:53;;;;;;;15.05;11.15;;;;;;;5.76;70.27;101062.69;4982012;28;20038;-51
2023/04/22 04:16:19;;;;;;;16.10;10.55;;;;;;;5.76;71.07;101068.78;4981333;28;20046;-51
2023/04/22 04:18:44;;;;;;;20.13;11.60;;;;;;;5.82;70.78;101067.78;4980956;28;20479;-51
2023/04/22 04:21:10;;;;;;;17.00;10.20;;;;;;;5.80;70.44;101072.19;4980661;28;20035;-51
2023/04/22 04:23:36;;;;;;;16.60;10.35;;;;;;;5.77;70.51;101069.63;4985083;28;20056;-51
2023/04/22 04:26:04;;;;;;;22.83;13.10;;;;;;;5.78;70.28;101066.13;4979078;28;20072;-51
2023/04/22 04:28:31;;;;;;;16.23;11.23;;;;;;;5.78;70.23;101060.88;4980678;28;20053;-51
2023/04/22 04:30:57;;;;;;;19.95;11.57;;;;;;;5.79;69.98;101067.88;4985538;28;20030;-51
2023/04/22 04:33:23;;;;;;;18.50;10.90;;;;;;;5.84;69.74;101066.00;4988977;28;20041;-51
2023/04/22 04:35:48;;;;;;;19.00;10.70;;;;;;;5.85;69.68;101065.97;4983716;28;20654;-51
2023/04/22 04:38:14;;;;;;;17.45;11.38;;;;;;;5.88;69.30;101063.28;4983787;28;20030;-51
2023/04/22 04:40:39;;;;;;;17.52;10.98;;;;;;;5.91;69.75;101066.75;4981965;28;20026;-51
2023/04/22 04:43:07;;;;;;;17.30;10.48;;;;;;;5.94;69.57;101062.28;4982042;28;20125;-51
2023/04/22 04:45:35;;;;;;;22.13;11.95;;;;;;;5.98;68.89;101073.59;4976534;28;20517;-52
2023/04/22 04:48:01;;;;;;;17.02;10.85;;;;;;;6.02;69.00;101068.25;4979935;28;20118;-51
2023/04/22 04:50:27;;;;;;;18.55;11.32;;;;;;;6.12;68.55;101060.19;4983755;28;20489;-51
2023/04/22 04:52:52;;;;;;;17.77;10.55;;;;;;;6.15;68.32;101065.38;4984834;28;20034;-51
2023/04/22 04:55:18;;;;;;;17.15;10.20;;;;;;;6.19;68.70;101067.03;4982496;28;20029;-51
2023/04/22 04:57:44;;;;;;;13.80;10.60;;;;;;;6.21;69.01;101067.84;4976818;28;20030;-51
2023/04/22 05:00:10;;;;;;;21.90;10.40;;;;;;;6.42;67.76;101066.50;4986931;28;20029;-51
2023/04/22 05:02:35;;;;;;;17.30;10.82;;;;;;;6.46;67.59;101054.16;4986534;28;20022;-51
2023/04/22 05:05:01;;;;;;;18.05;11.00;;;;;;;6.54;67.29;101052.19;4983075;28;20402;-51
2023/04/22 05:07:27;;;;;;;20.30;10.43;;;;;;;6.74;66.03;101060.47;4985827;28;20030;-51
2023/04/22 05:09:52;;;;;;;16.13;10.68;;;;;;;6.94;64.63;101051.22;4984263;28;20092;-51
2023/04/22 05:12:18;;;;;;;16.92;10.50;;;;;;;6.99;64.85;101050.19;4989405;28;20029;-51
2023/04/22 05:14:45;;;;;;;13.85;9.95;;;;;;;6.97;65.00;101057.25;4981533;28;20034;-51
2023/04/22 05:17:11;;;;;;;16.38;10.05;;;;;;;7.09;64.64;101063.97;4982420;28;20089;-51
2023/04/22 05:19:36;;;;;;;16.77;9.95;;;;;;;7.10;64.00;101057.81;4981979;28;20173;-51
2023/04/22 05:22:01;;;;;;;15.07;9.40;;;;;;;7.28;63.64;101055.59;4984317;28;20018;-51
2023/04/22 05:24:27;;;;;;;17.00;8.88;;;;;;;7.33;64.09;101065.06;4990118;28;20368;-51
2023/04/22 05:26:52;;;;;;;14.50;9.50;;;;;;;7.32;64.21;101066.00;4983940;28;20057;-51
2023/04/22 05:29:18;;;;;;;15.75;8.77;;;;;;;7.39;63.59;101064.06;4982368;28;20098;-51
2023/04/22 05:31:43;;;;;;;16.90;10.43;;;;;;;7.45;63.43;101063.88;4989533;28;20038;-51
2023/04/22 05:34:08;;;;;;;12.80;8.95;;;;;;;7.51;63.25;101068.13;4985559;28;20120;-51
2023/04/22 05:36:34;;;;;;;14.80;9.40;;;;;;;7.61;62.50;101064.31;4978314;28;20351;-51
2023/04/22 05:38:59;;;;;;;15.57;9.48;;;;;;;7.94;61.47;101068.66;4981924;28;20026;-51
2023/04/22 05:41:25;;;;;;;15.13;8.93;;;;;;;7.92;62.23;101073.09;4985798;28;20042;-51
2023/04/22 05:43:51;;;;;;;18.63;9.18;;;;;;;8.04;61.33;101065.72;4984568;28;20424;-51
2023/04/22 05:46:16;;;;;;;17.17;10.25;;;;;;;8.22;60.30;101074.81;4986154;28;20447;-51
2023/04/22 05:48:41;;;;;;;17.95;9.70;;;;;;;8.36;60.09;101073.53;4982775;28;20143;-51
2023/04/22 05:51:07;;;;;;;14.43;8.93;;;;;;;8.47;59.17;101071.44;4988196;28;20454;-51
2023/04/22 05:53:32;;;;;;;15.88;9.23;;;;;;;8.57;59.63;101072.88;4987105;28;20022;-51
2023/04/22 05:55:58;;;;;;;13.45;8.63;;;;;;;8.57;58.87;101078.13;4991151;28;20041;-51
2023/04/22 05:58:23;;;;;;;17.75;9.70;;;;;;;8.62;58.99;101073.59;4987792;28;20143;-51
2023/04/22 06:00:49;;;;;;;11.93;9.00;;;;;;;8.73;58.42;101077.63;4990092;28;20026;-51
2023/04/22 06:03:14;;;;;;;17.35;9.63;;;;;;;8.78;58.37;101075.72;4985458;28;20050;-51
2023/04/22 06:05:39;;;;;;;13.00;9.13;;;;;;;8.93;58.12;101074.34;4983390;28;20062;-51
2023/04/22 06:08:05;;;;;;;12.95;8.98;;;;;;;8.99;58.20;101077.66;4986271;28;20030;-51
2023/04/22 06:10:30;;;;;;;15.52;9.32;;;;;;;9.03;58.31;101069.63;4983586;28;20089;-51
2023/04/22 06:12:55;;;;;;;15.93;8.63;;;;;;;9.15;57.75;101066.56;4983313;28;20618;-51
2023/04/22 06:15:21;;;;;;;15.45;8.55;;;;;;;9.26;57.62;101071.47;4983455;28;20077;-51
2023/04/22 06:17:47;;;;;;;13.98;9.35;;;;;;;9.34;57.20;101075.56;4987814;28;20050;-51
2023/04/22 06:20:13;;;;;;;18.10;10.15;;;;;;;9.46;56.62;101068.13;4988606;28;20034;-51
2023/04/22 06:22:38;;;;;;;16.33;9.68;;;;;;;9.58;56.23;101077.38;4984217;28;20069;-51
2023/04/22 06:25:04;;;;;;;15.95;8.77;;;;;;;9.68;56.38;101074.34;4984702;28;20027;-51
2023/04/22 06:27:29;;;;;;;14.88;9.35;;;;;;;9.85;55.85;101072.84;4983345;28;20056;-51
2023/04/22 06:29:54;;;;;;;12.60;8.63;;;;;;;9.94;56.32;101080.44;4983149;28;20030;-51
2023/04/22 06:32:20;;;;;;;13.75;9.27;;;;;;;10.02;56.05;101073.09;4985669;28;20026;-51
2023/04/22 06:34:45;;;;;;;15.25;10.30;;;;;;;10.13;55.07;101075.28;4986331;28;20400;-51
2023/04/22 06:37:11;;;;;;;13.40;9.32;;;;;;;10.18;54.90;101072.47;4985842;28;20134;-51
2023/04/22 06:39:36;;;;;;;19.25;10.52;;;;;;;10.27;55.02;101072.13;4982893;28;20027;-52
2023/04/22 06:42:01;;;;;;;19.15;9.10;;;;;;;10.35;54.33;101070.09;4985087;28;20054;-51
2023/04/22 06:44:27;;;;;;;14.15;9.23;;;;;;;10.41;54.56;101067.19;4984767;28;20081;-52
2023/04/22 06:46:53;;;;;;;15.02;9.05;;;;;;;10.49;54.70;101061.59;4987905;28;20045;-52
2023/04/22 06:49:18;;;;;;;13.90;9.00;;;;;;;10.72;54.12;101068.56;4981541;28;20031;-52
2023/04/22 06:51:44;;;;;;;16.65;9.38;;;;;;;10.81;53.96;101067.34;4988789;28;20360;-52
2023/04/22 06:54:10;;;;;;;17.35;10.05;;;;;;;10.98;53.35;101067.47;4985154;28;20101;-52
2023/04/22 06:56:35;;;;;;;15.60;10.20;;;;;;;11.10;52.55;101060.84;4988676;28;20394;-51
2023/04/22 06:59:00;;;;;;;21.98;10.27;;;;;;;11.20;52.39;101059.50;4983479;28;20058;-51
2023/04/22 07:01:26;;;;;;;15.63;9.35;;;;;;;11.37;51.69;101057.91;4985634;28;20376;-51
2023/04/22 07:03:51;;;;;;;17.73;8.93;;;;;;;11.50;51.55;101068.81;4985492;28;20049;-51
2023/04/22 07:06:16;;;;;;;16.50;8.65;;;;;;;11.59;51.83;101055.19;4986521;28;20491;-51
2023/04/22 07:08:42;;;;;;;14.13;10.18;;;;;;;11.76;51.31;101062.34;4987701;28;20057;-51
2023/04/22 07:11:08;;;;;;;18.33;8.60;;;;;;;11.89;50.97;101060.84;4983140;28;20487;-52
2023/04/22 07:13:33;;;;;;;13.40;8.68;;;;;;;11.94;50.79;101058.88;4992466;28;20216;-52
2023/04/22 07:16:00;;;;;;;21.17;11.00;;;;;;;12.20;49.95;101051.50;4980439;28;20050;-50
2023/04/22 07:18:25;;;;;;;14.57;9.18;;;;;;;12.24;50.51;101047.78;4991101;28;20050;-52
2023/04/22 07:20:51;;;;;;;21.48;9.88;;;;;;;12.40;49.36;101054.97;4983763;28;20061;-49
2023/04/22 07:23:16;;;;;;;16.23;9.85;;;;;;;12.48;49.32;101051.00;4979249;28;20065;-50
2023/04/22 07:25:42;;;;;;;14.70;8.93;;;;;;;12.58;49.74;101046.13;4985659;28;20126;-50
2023/04/22 07:28:07;;;;;;;20.90;10.55;;;;;;;12.72;48.65;101057.84;4985473;28;20034;-50
2023/04/22 07:30:33;;;;;;;21.00;9.73;;;;;;;12.85;48.93;101056.31;4989362;28;20089;-51
2023/04/22 07:32:58;;;;;;;17.05;10.23;;;;;;;12.86;49.41;101052.69;4986690;28;20117;-50
2023/04/22 07:35:24;;;;;;;15.95;9.95;;;;;;;13.04;48.68;101043.81;4985318;28;20329;-50
2023/04/22 07:37:49;;;;;;;15.70;9.07;;;;;;;13.11;48.24;101043.47;4984319;28;20355;-50
2023/04/22 07:40:15;;;;;;;12.65;9.05;;;;;;;13.22;47.96;101043.78;4981764;28;20109;-50
2023/04/22 07:42:40;;;;;;;17.70;9.50;;;;;;;13.34;47.84;101045.84;4989913;28;20062;-52
2023/04/22 07:45:06;;;;;;;16.58;8.95;;;;;;;13.38;47.90;101042.06;4971828;28;20043;-51
2023/04/22 07:47:32;;;;;;;15.02;9.95;;;;;;;13.51;48.05;101036.13;4991551;28;20037;-50
2023/04/22 07:49:57;;;;;;;21.67;9.02;;;;;;;13.67;47.60;101031.72;4988887;28;20030;-50
2023/04/22 07:52:23;;;;;;;19.08;8.38;;;;;;;13.71;47.28;101033.25;4990807;28;20057;-50
2023/04/22 07:54:48;;;;;;;17.45;9.25;;;;;;;13.86;47.15;101028.03;4978589;28;20037;-50
2023/04/22 07:57:14;;;;;;;14.00;9.05;;;;;;;13.96;47.43;101026.59;4984679;28;20046;-51
2023/04/22 07:59:39;;;;;;;13.80;8.65;;;;;;;14.14;46.59;101022.91;4992637;28;20085;-50
2023/04/22 08:02:05;;;;;;;11.88;8.02;;;;;;;14.26;46.76;101026.69;4988456;28;20066;-51
2023/04/22 08:04:30;;;;;;;16.10;8.10;;;;;;;14.34;46.40;101020.94;4977744;28;20042;-50
2023/04/22 08:06:56;;;;;;;13.70;8.45;;;;;;;14.45;46.37;101018.50;4982064;28;20133;-50
2023/04/22 08:09:21;;;;;;;12.88;9.10;;;;;;;14.47;46.27;101021.94;4978094;28;20073;-51
2023/04/22 08:11:47;;;;;;;12.18;8.57;;;;;;;14.62;46.41;101019.38;4981341;28;20145;-50
2023/04/22 08:14:13;;;;;;;12.00;8.57;;;;;;;14.83;45.95;101014.59;4975010;28;20330;-53
2023/04/22 08:16:39;;;;;;;14.32;8.80;;;;;;;14.99;45.00;101012.72;4985401;28;20052;-51
2023/04/22 08:19:04;;;;;;;15.65;8.75;;;;;;;15.02;45.35;101011.66;4958080;28;20419;-53
2023/04/22 08:21:30;;;;;;;14.90;9.05;;;;;;;15.09;44.82;101013.03;4987911;28;20101;-52
2023/04/22 08:23:56;;;;;;;17.52;8.80;;;;;;;15.15;44.76;101007.34;4977560;28;20034;-52
2023/04/22 08:26:21;;;;;;;17.77;8.50;;;;;;;15.40;44.58;101005.84;4981634;28;20426;-52
2023/04/22 08:28:47;;;;;;;14.20;8.55;;;;;;;15.44;44.49;101012.66;4985596;28;20022;-52
2023/04/22 08:31:12;;;;;;;10.60;7.68;;;;;;;15.59;44.15;101011.72;4975591;28;20058;-52
2023/04/22 08:33:39;;;;;;;14.45;8.15;;;;;;;15.72;44.23;101011.78;4977355;28;20116;-53
2023/04/22 08:36:05;;;;;;;12.50;8.07;;;;;;;15.73;43.94;101016.16;4992902;28;20511;-51
2023/04/22 08:38:30;;;;;;;16.00;7.80;;;;;;;15.88;43.82;101014.38;4982669;28;20050;-52
2023/04/22 08:40:56;;;;;;;15.48;8.00;;;;;;;15.97;43.45;101015.63;4978558;28;20026;-52
2023/04/22 08:43:22;;;;;;;13.80;9.68;;;;;;;16.02;43.58;101008.16;4984256;28;20041;-52
2023/04/22 08:45:47;;;;;;;16.48;8.18;;;;;;;16.22;43.78;101006.88;4983433;28;20030;-52
2023/04/22 08:48:13;;;;;;;18.85;10.18;;;;;;;16.43;43.67;101001.06;4986051;28;20033;-52
2023/04/22 08:50:39;;;;;;;15.15;7.82;;;;;;;16.61;43.01;101005.19;4988949;28;20030;-50
2023/04/22 08:53:04;;;;;;;10.55;7.97;;;;;;;16.70;43.58;100996.53;4988905;28;20034;-52
2023/04/22 08:55:30;;;;;;;17.83;8.20;;;;;;;16.77;42.83;101004.13;4991064;28;20085;-50
2023/04/22 08:57:56;;;;;;;21.35;8.02;;;;;;;16.93;41.96;100994.16;4989420;28;20026;-50
2023/04/22 09:00:21;;;;;;;15.10;7.57;;;;;;;17.10;40.63;101000.16;4987380;28;20030;-50
2023/04/22 09:02:49;;;;;;;16.40;7.80;;;;;;;17.22;39.73;100988.63;4988881;28;20034;-50
2023/04/22 09:05:15;;;;;;;14.65;7.60;;;;;;;17.22;39.93;101000.16;4991938;28;20037;-50
2023/04/22 09:07:40;;;;;;;16.95;8.35;;;;;;;17.22;40.03;100988.63;4992559;28;20034;-50
2023/04/22 09:10:07;;;;;;;15.00;7.00;;;;;;;17.35;40.00;100986.81;4991826;28;20030;-50
2023/04/22 09:12:32;;;;;;;15.40;8.27;;;;;;;17.50;39.55;100989.34;4992050;28;20451;-50
2023/04/22 09:14:58;;;;;;;14.75;7.30;;;;;;;17.58;39.10;100985.16;4989462;28;20066;-52
2023/04/22 09:17:34;;;;;;;16.95;6.82;;;;;;;17.71;38.81;100985.13;4986223;28;20340;-51
2023/04/22 09:20:01;;;;;;;13.43;7.53;;;;;;;17.60;39.24;100977.03;4979163;28;20111;-53
2023/04/22 09:22:28;;;;;;;19.42;7.93;;;;;;;17.73;38.86;100985.03;4981752;28;20400;-51
2023/04/22 09:24:54;;;;;;;16.55;7.80;;;;;;;17.79;38.52;100988.13;4988913;28;20209;-51
2023/04/22 09:27:23;;;;;;;18.30;9.48;;;;;;;17.91;38.23;100972.19;4979509;28;20035;-52
2023/04/22 09:29:50;;;;;;;17.67;8.30;;;;;;;18.08;38.58;100977.16;4979417;28;20135;-52
2023/04/22 09:32:16;;;;;;;14.25;7.82;;;;;;;18.11;38.83;100963.56;4989723;28;20026;-52
2023/04/22 09:34:50;;;;;;;16.65;8.55;;;;;;;18.25;38.56;100967.88;4989848;28;20038;-52
2023/04/22 09:37:22;;;;;;;11.27;7.38;;;;;;;18.25;38.19;100967.03;4982482;28;20093;-51
2023/04/22 09:39:49;;;;;;;14.20;7.50;;;;;;;18.30;37.92;100965.69;4990916;28;20049;-52
2023/04/22 09:42:15;;;;;;;13.48;7.28;;;;;;;18.40;37.64;100957.84;4992058;28;20096;-52
2023/04/22 09:44:41;;;;;;;19.55;7.28;;;;;;;18.41;37.45;100956.88;4987324;28;20134;-52
2023/04/22 09:47:07;;;;;;;15.63;7.60;;;;;;;18.56;37.83;100959.38;4979661;28;20443;-52
2023/04/22 09:49:36;;;;;;;15.43;6.57;;;;;;;18.68;36.95;100947.69;4992121;28;20034;-54
2023/04/22 09:52:02;;;;;;;11.43;7.47;;;;;;;18.71;36.96;100942.13;4990808;28;20046;-52
2023/04/22 09:54:27;;;;;;;14.68;6.97;;;;;;;18.95;37.16;100933.19;4981957;28;20579;-52
2023/04/22 09:56:53;;;;;;;11.38;6.80;;;;;;;19.08;35.64;100933.94;4978846;28;20034;-53
2023/04/22 09:59:20;;;;;;;11.70;6.25;;;;;;;19.05;35.68;100931.50;4992199;28;20030;-50
2023/04/22 10:01:46;;;;;;;10.82;6.13;;;;;;;19.19;35.96;100931.25;4986471;28;20194;-52
2023/04/22 10:04:13;;;;;;;12.52;6.13;;;;;;;19.48;34.76;100919.19;4975712;28;20455;-52
2023/04/22 10:06:39;;;;;;;12.02;6.97;;;;;;;19.65;35.20;100920.47;4982617;28;20069;-52
2023/04/22 10:09:05;;;;;;;10.50;6.50;;;;;;;19.59;34.37;100911.97;4990774;28;20057;-51
2023/04/22 10:11:31;;;;;;;14.23;6.28;;;;;;;19.76;34.09;100912.44;4988227;28;20037;-52
2023/04/22 10:13:57;;;;;;;7.65;5.47;;;;;;;19.67;33.61;100907.81;4982917;28;20034;-52
2023/04/22 10:16:24;;;;;;;11.38;5.38;;;;;;;19.91;34.51;100908.53;4989463;28;20038;-52
2023/04/22 10:18:51;;;;;;;14.25;6.03;;;;;;;20.10;33.04;100896.25;4990899;28;20034;-50
2023/04/22 10:21:17;;;;;;;10.48;5.78;;;;;;;20.10;32.48;100898.94;4989823;28;20027;-52
2023/04/22 10:23:47;;;;;;;9.55;5.82;;;;;;;20.07;32.63;100894.66;4983450;28;20117;-51
2023/04/22 10:26:17;;;;;;;8.48;5.15;;;;;;;20.19;32.04;100892.81;4988866;28;20048;-52
2023/04/22 10:28:43;;;;;;;9.75;4.88;;;;;;;20.38;31.29;100885.88;4989840;28;20184;-51
2023/04/22 10:31:22;;;;;;;11.23;5.30;;;;;;;20.32;31.72;100890.78;4989844;28;20397;-50
2023/04/22 10:33:47;;;;;;;14.02;5.90;;;;;;;20.31;31.25;100886.38;4991926;28;20030;-50
2023/04/22 10:36:13;;;;;;;10.13;5.45;;;;;;;20.65;30.56;100888.91;4991017;28;20049;-52
2023/04/22 10:39:01;;;;;;;11.65;5.57;;;;;;;20.61;30.17;100882.06;4992296;28;24066;-51
2023/04/22 10:41:34;;;;;;;13.40;4.63;;;;;;;20.70;28.73;100886.69;4979951;28;20049;-51
2023/04/22 10:44:01;;;;;;;10.30;5.70;;;;;;;20.91;28.56;100877.75;4993272;28;20026;-51
2023/04/22 10:46:29;;;;;;;10.07;5.55;;;;;;;21.14;28.86;100873.03;4994231;28;20022;-51
2023/04/22 10:49:17;;;;;;;8.35;5.13;;;;;;;21.45;28.31;100879.22;4981879;28;20059;-51
2023/04/22 10:51:49;;;;;;;14.25;6.05;;;;;;;21.93;27.88;100883.00;4980239;28;20097;-52
2023/04/22 10:54:35;;;;;;;14.35;5.53;;;;;;;22.63;27.14;100877.44;4993957;28;20038;-51
2023/04/22 10:57:02;;;;;;;10.95;5.38;;;;;;;23.14;26.43;100880.69;4988945;28;20031;-51
2023/04/22 10:59:28;;;;;;;8.85;5.05;;;;;;;24.00;25.11;100857.88;4995272;28;20116;-52
2023/04/22 11:01:54;;;;;;;11.10;5.20;;;;;;;24.91;24.16;100862.06;4993621;28;20038;-51
2023/04/22 11:04:21;;;;;;;8.10;4.15;;;;;;;25.13;23.97;100851.72;4994883;28;20080;-52
2023/04/22 11:07:21;;;;;;;8.07;5.03;;;;;;;26.24;22.69;100856.00;4976214;28;20478;-51
2023/04/22 11:09:51;;;;;;;8.32;4.68;;;;;;;26.11;22.35;100854.69;4995485;28;20082;-52
2023/04/22 11:12:38;;;;;;;12.35;5.68;;;;;;;26.12;22.02;100847.38;4993332;28;20400;-51
2023/04/22 11:15:06;;;;;;;13.35;4.40;;;;;;;26.51;21.31;100839.38;4988839;28;20058;-51